createdAt,value
2023-04-06T00:00:37.818Z,1.30
2023-04-06T00:03:05.997Z,1.30
2023-04-06T00:05:34.166Z,1.20
2023-04-06T00:08:02.670Z,1.10
2023-04-06T00:10:30.749Z,1.10
2023-04-06T00:12:59.626Z,1.00
2023-04-06T00:15:28.381Z,0.90
2023-04-06T00:17:57.861Z,0.80
2023-04-06T00:20:26.632Z,0.70
2023-04-06T00:22:54.653Z,0.70
2023-04-06T00:25:22.740Z,0.60
2023-04-06T00:27:50.764Z,0.60
2023-04-06T00:30:18.805Z,0.60
2023-04-06T00:32:47.050Z,0.50
2023-04-06T00:35:15.220Z,0.50
2023-04-06T00:37:43.324Z,0.50
2023-04-06T00:40:11.714Z,0.50
2023-04-06T00:42:39.788Z,0.50
2023-04-06T00:45:08.047Z,0.50
2023-04-06T00:47:36.218Z,0.60
2023-04-06T00:50:04.459Z,0.60
2023-04-06T00:52:32.582Z,0.70
2023-04-06T00:55:00.705Z,0.60
2023-04-06T00:57:29.652Z,0.60
2023-04-06T00:59:58.224Z,0.50
2023-04-06T01:02:27.542Z,0.50
2023-04-06T02:39:23.030Z,-0.20
2023-04-06T02:41:52.369Z,-0.20
2023-04-06T02:44:24.262Z,-0.30
2023-04-06T02:46:53.172Z,-0.30
2023-04-06T02:49:23.286Z,-0.20
2023-04-06T02:51:56.243Z,-0.30
2023-04-06T02:54:28.649Z,-0.30
2023-04-06T02:56:56.765Z,-0.40
2023-04-06T02:59:31.293Z,-0.40
2023-04-06T03:02:08.088Z,-0.50
2023-04-06T03:04:37.332Z,-0.50
2023-04-06T03:07:08.853Z,-0.40
2023-04-06T03:09:40.448Z,-0.40
2023-04-06T03:12:10.156Z,-0.40
2023-04-06T03:14:58.449Z,-0.50
2023-04-06T03:17:27.413Z,-0.60
2023-04-06T03:19:58.633Z,-0.60
2023-04-06T03:22:26.981Z,-0.50
2023-04-06T03:24:55.458Z,-0.40
2023-04-06T03:27:23.566Z,-0.50
2023-04-06T03:29:52.040Z,-0.50
2023-04-06T03:32:27.569Z,-0.50
2023-04-06T03:34:55.706Z,-0.50
2023-04-06T03:37:23.808Z,-0.60
2023-04-06T03:39:55.683Z,-0.60
2023-04-06T03:42:26.567Z,-0.70
2023-04-06T03:44:59.725Z,-0.70
2023-04-06T03:47:28.056Z,-0.80
2023-04-06T03:50:00.646Z,-0.70
2023-04-06T03:52:28.889Z,-0.70
2023-04-06T03:54:57.189Z,-0.70
2023-04-06T03:57:25.242Z,-0.70
2023-04-06T03:59:53.292Z,-0.70
2023-04-06T04:02:22.279Z,-0.80
2023-04-06T04:04:52.098Z,-0.70
2023-04-06T04:07:20.208Z,-0.80
2023-04-06T04:09:48.274Z,-0.80
2023-04-06T04:12:17.678Z,-0.80
2023-04-06T04:14:48.466Z,-0.80
2023-04-06T04:17:16.647Z,-0.90
2023-04-06T04:19:47.747Z,-0.90
2023-04-06T04:22:17.888Z,-0.90
2023-04-06T04:24:46.077Z,-0.90
2023-04-06T04:27:14.105Z,-0.90
2023-04-06T04:29:43.187Z,-0.80
2023-04-06T04:32:13.604Z,-0.80
2023-04-06T04:34:42.569Z,-0.80
2023-04-06T04:37:17.668Z,-0.80
2023-04-06T04:39:57.734Z,-0.80
2023-04-06T04:42:26.035Z,-0.80
2023-04-06T04:44:57.100Z,-0.80
2023-04-06T04:47:43.995Z,-0.90
2023-04-06T04:50:14.320Z,-0.90
2023-04-06T04:52:45.881Z,-0.90
2023-04-06T04:55:34.124Z,-1.00
2023-04-06T04:58:04.684Z,-0.90
2023-04-06T05:00:49.573Z,-1.00
2023-04-06T05:03:22.910Z,-0.90
2023-04-06T05:05:58.384Z,-0.90
2023-04-06T05:08:29.954Z,-0.90
2023-04-06T05:10:58.853Z,-0.90
2023-04-06T05:13:28.110Z,-0.90
2023-04-06T05:15:57.818Z,-0.90
2023-04-06T05:18:30.052Z,-0.90
2023-04-06T05:21:01.799Z,-0.90
2023-04-06T05:23:50.340Z,-0.80
2023-04-06T05:26:18.623Z,-0.70
2023-04-06T05:28:47.820Z,-0.70
2023-04-06T05:31:17.098Z,-0.50
2023-04-06T05:33:49.967Z,-0.50
2023-04-06T05:36:25.958Z,-0.40
2023-04-06T05:38:55.089Z,-0.30
2023-04-06T05:41:51.285Z,-0.20
2023-04-06T05:44:29.433Z,-0.10
2023-04-06T05:47:06.597Z,0.10
2023-04-06T05:49:35.106Z,0.20
2023-04-06T05:52:04.333Z,0.40
2023-04-06T05:54:33.851Z,0.50
2023-04-06T05:57:06.742Z,0.50
2023-04-06T05:59:35.002Z,0.60
2023-04-06T06:02:03.877Z,0.70
2023-04-06T06:04:35.115Z,0.80
2023-04-06T06:07:03.751Z,0.90
2023-04-06T06:09:43.900Z,1.00
2023-04-06T06:12:21.234Z,1.20
2023-04-06T06:14:53.913Z,1.50
2023-04-06T06:17:25.354Z,2.00
2023-04-06T06:19:53.540Z,2.50
2023-04-06T06:22:22.256Z,3.10
2023-04-06T06:24:52.814Z,3.50
2023-04-06T06:27:22.641Z,4.00
2023-04-06T06:29:50.946Z,4.50
2023-04-06T06:32:20.113Z,4.90
2023-04-06T06:34:52.373Z,5.30
2023-04-06T06:37:21.115Z,5.60
2023-04-06T06:39:50.472Z,6.00
2023-04-06T06:42:20.409Z,6.30
2023-04-06T06:45:14.584Z,6.70
2023-04-06T06:47:43.748Z,7.00
2023-04-06T06:50:13.200Z,7.20
2023-04-06T06:52:42.169Z,7.60
2023-04-06T06:55:11.111Z,7.60
2023-04-06T06:57:40.896Z,7.90
2023-04-06T07:00:16.490Z,8.30
2023-04-06T07:02:46.553Z,8.70
2023-04-06T07:05:26.988Z,8.70
2023-04-06T07:07:58.345Z,8.90
2023-04-06T07:10:28.211Z,9.00
2023-04-06T07:12:57.355Z,9.30
2023-04-06T07:15:25.661Z,9.80
2023-04-06T07:17:54.667Z,10.20
2023-04-06T07:20:23.146Z,10.30
2023-04-06T07:22:51.312Z,10.00
2023-04-06T07:25:19.578Z,10.30
2023-04-06T07:27:47.839Z,10.70
2023-04-06T07:30:17.357Z,11.20
2023-04-06T07:32:45.616Z,11.40
2023-04-06T07:35:13.754Z,11.70
2023-04-06T07:37:44.711Z,12.00
2023-04-06T07:40:13.263Z,12.30
2023-04-06T07:42:43.304Z,12.70
2023-04-06T07:45:17.100Z,12.70
2023-04-06T07:47:45.540Z,12.50
2023-04-06T07:50:13.929Z,12.90
2023-04-06T07:52:42.715Z,13.30
2023-04-06T07:55:11.392Z,13.30
2023-04-06T07:57:39.554Z,13.70
2023-04-06T08:00:08.014Z,14.20
2023-04-06T08:02:56.128Z,14.20
2023-04-06T08:05:24.322Z,14.10
2023-04-06T08:07:52.494Z,14.30
2023-04-06T08:10:20.639Z,14.40
2023-04-06T08:12:48.744Z,14.50
2023-04-06T08:15:17.279Z,14.60
2023-04-06T08:17:45.477Z,14.90
2023-04-06T08:20:13.857Z,14.90
2023-04-06T08:22:42.348Z,15.00
2023-04-06T08:25:14.048Z,14.80
2023-04-06T08:27:43.239Z,15.10
2023-04-06T08:30:11.863Z,15.70
2023-04-06T08:32:40.134Z,15.60
2023-04-06T08:35:09.196Z,15.70
2023-04-06T08:37:37.410Z,15.90
2023-04-06T08:40:05.825Z,16.00
2023-04-06T08:42:41.535Z,15.90
2023-04-06T08:45:12.285Z,15.80
2023-04-06T08:47:43.545Z,16.10
2023-04-06T08:50:15.210Z,16.20
2023-04-06T08:52:45.428Z,16.50
2023-04-06T08:55:13.631Z,17.10
2023-04-06T08:57:42.482Z,17.40
2023-04-06T09:00:12.248Z,17.70
2023-04-06T09:02:41.507Z,17.40
2023-04-06T09:05:10.339Z,16.90
2023-04-06T09:07:38.798Z,16.70
2023-04-06T09:10:07.999Z,16.50
2023-04-06T09:12:36.807Z,16.30
2023-04-06T09:15:05.603Z,16.10
2023-04-06T09:17:35.778Z,16.20
2023-04-06T09:20:05.490Z,15.80
2023-04-06T09:22:37.794Z,15.70
2023-04-06T09:25:06.257Z,15.80
2023-04-06T09:27:38.410Z,15.70
2023-04-06T09:30:07.515Z,16.00
2023-04-06T09:32:47.219Z,16.10
2023-04-06T09:35:15.638Z,16.20
2023-04-06T09:37:46.965Z,16.20
2023-04-06T09:40:15.881Z,15.90
2023-04-06T09:42:44.476Z,14.90
2023-04-06T09:45:16.739Z,15.10
2023-04-06T09:47:49.249Z,15.70
2023-04-06T09:50:18.584Z,16.10
2023-04-06T09:52:51.840Z,16.20
2023-04-06T09:55:26.297Z,16.30
2023-04-06T09:58:06.095Z,15.70
2023-04-06T10:00:35.370Z,15.30
2023-04-06T10:03:09.931Z,15.80
2023-04-06T10:05:47.438Z,15.60
2023-04-06T10:08:16.175Z,15.60
2023-04-06T10:10:44.914Z,15.70
2023-04-06T10:13:13.803Z,15.70
2023-04-06T10:15:44.930Z,15.80
2023-04-06T10:18:13.105Z,16.30
2023-04-06T10:20:43.251Z,16.50
2023-04-06T10:23:20.282Z,16.60
2023-04-06T10:25:55.906Z,16.80
2023-04-06T10:28:24.333Z,16.50
2023-04-06T10:30:58.782Z,16.20
2023-04-06T10:33:27.166Z,15.80
2023-04-06T10:35:55.310Z,14.90
2023-04-06T10:38:24.358Z,15.10
2023-04-06T10:40:52.484Z,15.40
2023-04-06T10:43:24.791Z,15.40
2023-04-06T10:45:59.980Z,15.40
2023-04-06T10:48:38.189Z,15.50
2023-04-06T10:51:09.656Z,15.20
2023-04-06T10:53:37.725Z,14.90
2023-04-06T10:56:06.367Z,14.90
2023-04-06T10:58:34.542Z,15.40
2023-04-06T11:01:02.827Z,15.80
2023-04-06T11:03:31.514Z,15.90
2023-04-06T11:05:59.573Z,16.20
2023-04-06T11:08:29.959Z,16.20
2023-04-06T11:11:18.333Z,16.30
2023-04-06T11:13:47.648Z,16.40
2023-04-06T11:16:17.100Z,16.00
2023-04-06T11:19:01.969Z,16.00
2023-04-06T11:21:41.588Z,16.10
2023-04-06T11:24:17.547Z,16.50
2023-04-06T11:26:48.299Z,16.80
2023-04-06T11:29:20.662Z,16.80
2023-04-06T11:31:49.934Z,16.80
2023-04-06T11:34:21.623Z,17.00
2023-04-06T11:37:00.201Z,17.10
2023-04-06T11:39:29.370Z,17.30
2023-04-06T11:42:06.848Z,17.00
2023-04-06T11:44:42.318Z,16.80
2023-04-06T11:47:11.151Z,17.00
2023-04-06T11:49:39.876Z,16.90
2023-04-06T11:52:21.429Z,16.70
2023-04-06T11:54:50.444Z,16.40
2023-04-06T11:57:19.028Z,16.50
2023-04-06T11:59:47.381Z,16.50
2023-04-06T12:02:15.542Z,16.30
2023-04-06T12:04:43.737Z,16.30
2023-04-06T12:07:12.150Z,16.30
2023-04-06T12:09:41.144Z,16.50
2023-04-06T12:12:09.297Z,16.40
2023-04-06T12:14:37.507Z,16.40
2023-04-06T12:17:05.688Z,16.60
2023-04-06T12:19:33.922Z,16.60
2023-04-06T12:22:04.382Z,16.50
2023-04-06T12:24:37.276Z,16.70
2023-04-06T12:27:10.200Z,17.20
2023-04-06T12:29:39.685Z,17.50
2023-04-06T12:32:08.439Z,17.60
2023-04-06T12:34:37.104Z,16.90
2023-04-06T12:37:05.254Z,16.80
2023-04-06T12:39:33.846Z,17.10
2023-04-06T12:42:01.916Z,17.00
2023-04-06T12:44:30.022Z,16.90
2023-04-06T12:46:58.561Z,17.20
2023-04-06T12:49:26.831Z,17.00
2023-04-06T12:51:54.923Z,17.00
2023-04-06T12:54:23.009Z,17.20
2023-04-06T12:56:51.167Z,17.40
2023-04-06T12:59:19.375Z,17.40
2023-04-06T13:01:47.752Z,17.50
2023-04-06T13:04:15.800Z,17.40
2023-04-06T13:06:44.082Z,17.40
2023-04-06T13:09:12.214Z,17.60
2023-04-06T13:11:41.218Z,17.80
2023-04-06T13:14:09.281Z,18.10
2023-04-06T13:16:38.680Z,18.20
2023-04-06T13:19:06.872Z,18.10
2023-04-06T13:21:35.665Z,18.10
2023-04-06T13:24:03.729Z,17.80
2023-04-06T13:26:32.018Z,17.50
2023-04-06T13:29:01.814Z,17.50
2023-04-06T13:31:29.968Z,17.40
2023-04-06T13:33:58.094Z,17.20
2023-04-06T13:36:26.353Z,17.60
2023-04-06T13:38:54.683Z,17.80
2023-04-06T13:41:23.452Z,17.80
2023-04-06T13:43:53.119Z,17.80
2023-04-06T13:46:21.647Z,17.80
2023-04-06T13:48:50.383Z,18.00
2023-04-06T13:51:18.632Z,17.90
2023-04-06T13:53:46.787Z,18.00
2023-04-06T13:56:14.860Z,17.70
2023-04-06T13:58:43.094Z,17.50
2023-04-06T14:01:11.988Z,17.30
2023-04-06T14:03:41.660Z,16.50
2023-04-06T14:06:27.484Z,16.20
2023-04-06T14:08:59.304Z,16.50
2023-04-06T14:11:27.566Z,17.00
2023-04-06T14:14:47.013Z,17.30
2023-04-06T14:17:18.199Z,17.30
2023-04-06T14:19:47.748Z,17.10
2023-04-06T14:22:15.835Z,16.90
2023-04-06T14:24:44.858Z,17.00
2023-04-06T14:27:18.006Z,16.90
2023-04-06T14:29:48.891Z,16.60
2023-04-06T14:32:20.357Z,16.90
2023-04-06T14:34:52.399Z,17.20
2023-04-06T14:37:20.867Z,17.00
2023-04-06T14:39:48.865Z,17.20
2023-04-06T14:42:17.014Z,16.90
2023-04-06T14:44:47.439Z,16.80
2023-04-06T14:47:17.888Z,16.50
2023-04-06T14:49:45.927Z,16.20
2023-04-06T14:52:13.930Z,16.20
2023-04-06T14:54:42.216Z,15.80
2023-04-06T14:57:10.321Z,15.50
2023-04-06T14:59:40.135Z,15.60
2023-04-06T15:02:08.737Z,15.80
2023-04-06T15:04:43.186Z,15.90
2023-04-06T15:07:26.293Z,16.00
2023-04-06T15:10:03.356Z,16.10
2023-04-06T15:12:37.641Z,16.20
2023-04-06T15:15:15.642Z,16.40
2023-04-06T15:17:53.122Z,16.30
2023-04-06T15:20:25.168Z,16.40
2023-04-06T15:22:58.258Z,16.20
2023-04-06T15:25:37.595Z,16.20
2023-04-06T15:28:24.551Z,16.00
2023-04-06T15:30:56.252Z,15.90
2023-04-06T15:33:37.858Z,15.80
2023-04-06T15:36:14.703Z,15.90
2023-04-06T15:38:47.120Z,15.70
2023-04-06T15:41:24.748Z,15.70
2023-04-06T15:43:54.645Z,15.50
2023-04-06T15:46:25.565Z,15.50
2023-04-06T15:48:56.577Z,15.50
2023-04-06T15:51:25.716Z,15.40
2023-04-06T15:53:53.737Z,15.20
2023-04-06T15:56:22.342Z,15.10
2023-04-06T15:58:51.818Z,15.00
2023-04-06T16:01:23.028Z,15.00
2023-04-06T16:03:51.672Z,14.90
2023-04-06T16:06:19.793Z,14.80
2023-04-06T16:08:48.310Z,14.50
2023-04-06T16:11:17.456Z,14.40
2023-04-06T16:13:54.696Z,14.50
2023-04-06T16:16:24.378Z,14.40
2023-04-06T16:18:53.799Z,14.40
2023-04-06T16:21:21.926Z,14.20
2023-04-06T16:23:50.064Z,13.80
2023-04-06T16:26:21.126Z,13.60
2023-04-06T16:28:51.735Z,13.70
2023-04-06T16:31:23.880Z,13.70
2023-04-06T16:33:53.681Z,13.70
2023-04-06T16:36:32.350Z,13.80
2023-04-06T16:39:03.057Z,13.70
2023-04-06T16:41:31.174Z,13.30
2023-04-06T16:43:59.381Z,13.10
2023-04-06T16:46:36.209Z,13.00
2023-04-06T16:49:11.604Z,13.00
2023-04-06T16:51:43.499Z,13.00
2023-04-06T16:54:11.750Z,13.00
2023-04-06T16:56:42.381Z,12.90
2023-04-06T16:59:10.453Z,12.80
2023-04-06T17:01:38.636Z,12.80
2023-04-06T17:04:07.415Z,12.80
2023-04-06T17:06:35.598Z,12.70
2023-04-06T17:09:03.922Z,12.70
2023-04-06T17:11:43.604Z,12.60
2023-04-06T17:14:14.489Z,12.60
2023-04-06T17:16:42.604Z,12.50
2023-04-06T17:19:10.668Z,12.40
2023-04-06T17:21:40.305Z,12.30
2023-04-06T17:24:09.178Z,12.00
2023-04-06T17:26:37.426Z,11.80
2023-04-06T17:29:05.850Z,11.70
2023-04-06T17:31:33.985Z,11.50
2023-04-06T17:34:02.125Z,11.40
2023-04-06T17:36:30.600Z,11.20
2023-04-06T17:38:58.725Z,11.00
2023-04-06T17:41:27.899Z,10.80
2023-04-06T17:43:55.932Z,10.60
2023-04-06T17:46:24.059Z,10.50
2023-04-06T17:48:53.279Z,10.30
2023-04-06T17:51:22.056Z,10.20
2023-04-06T17:53:50.277Z,10.10
2023-04-06T17:56:18.395Z,10.00
2023-04-06T17:58:46.895Z,9.80
2023-04-06T18:01:16.143Z,9.70
2023-04-06T18:03:44.291Z,9.50
2023-04-06T18:06:16.165Z,9.40
2023-04-06T18:08:47.401Z,9.20
2023-04-06T18:11:18.724Z,8.90
2023-04-06T18:13:47.062Z,8.70
2023-04-06T18:16:15.354Z,8.60
2023-04-06T18:18:43.476Z,8.40
2023-04-06T18:21:11.618Z,8.20
2023-04-06T18:23:39.702Z,8.10
2023-04-06T18:26:08.286Z,7.90
2023-04-06T18:28:36.436Z,8.00
2023-04-06T18:31:04.604Z,7.80
2023-04-06T18:33:33.760Z,7.60
2023-04-06T18:36:01.959Z,7.40
2023-04-06T18:38:29.993Z,7.30
2023-04-06T18:40:58.132Z,7.20
2023-04-06T18:43:26.734Z,7.20
2023-04-06T18:45:54.830Z,7.10
2023-04-06T18:48:22.992Z,7.10
2023-04-06T18:50:54.888Z,7.00
2023-04-06T18:53:23.237Z,6.90
2023-04-06T18:55:52.362Z,6.80
2023-04-06T18:58:20.727Z,6.70
2023-04-06T19:00:48.787Z,6.70
2023-04-06T19:03:18.044Z,6.60
2023-04-06T19:05:47.528Z,6.40
2023-04-06T19:08:16.242Z,6.40
2023-04-06T19:10:45.210Z,6.30
2023-04-06T19:13:13.277Z,6.20
2023-04-06T19:15:43.192Z,6.00
2023-04-06T19:18:11.664Z,5.90
2023-04-06T19:20:39.734Z,5.80
2023-04-06T19:23:07.907Z,5.70
2023-04-06T19:25:36.036Z,5.70
2023-04-06T19:28:04.120Z,5.70
2023-04-06T19:30:32.251Z,5.70
2023-04-06T19:33:00.321Z,5.60
2023-04-06T19:35:28.420Z,5.60
2023-04-06T19:37:56.584Z,5.50
2023-04-06T19:40:24.604Z,5.40
2023-04-06T19:42:52.742Z,5.40
2023-04-06T19:45:20.846Z,5.50
2023-04-06T19:47:48.982Z,5.60
2023-04-06T19:50:17.166Z,5.50
2023-04-06T19:52:45.264Z,5.40
2023-04-06T19:55:13.305Z,5.30
2023-04-06T19:57:41.405Z,5.30
2023-04-06T20:00:10.485Z,5.10
2023-04-06T20:02:38.775Z,5.00
2023-04-06T20:05:10.094Z,5.00
2023-04-06T20:07:41.584Z,5.00
2023-04-06T20:10:09.849Z,4.80
2023-04-06T20:12:38.141Z,4.70
2023-04-06T20:15:06.364Z,4.70
2023-04-06T20:17:34.716Z,4.70
2023-04-06T20:20:02.887Z,4.60
2023-04-06T20:22:30.914Z,4.60
2023-04-06T20:24:59.008Z,4.60
2023-04-06T20:27:27.374Z,4.70
2023-04-06T20:29:55.504Z,4.60
2023-04-06T20:32:23.654Z,4.60
2023-04-06T20:34:52.104Z,4.60
2023-04-06T20:37:21.970Z,4.60
2023-04-06T20:39:50.118Z,4.70
2023-04-06T20:42:18.427Z,4.60
2023-04-06T20:44:46.604Z,4.60
2023-04-06T20:47:14.637Z,4.50
2023-04-06T20:49:42.827Z,4.60
2023-04-06T20:52:10.954Z,4.40
2023-04-06T20:54:39.003Z,4.30
2023-04-06T20:57:07.168Z,4.20
2023-04-06T20:59:35.336Z,4.10
2023-04-06T21:02:03.504Z,4.00
2023-04-06T21:04:31.636Z,3.90
2023-04-06T21:06:59.885Z,3.90
2023-04-06T21:09:29.272Z,3.80
2023-04-06T21:11:57.407Z,3.70
2023-04-06T21:14:25.670Z,3.60
2023-04-06T21:16:54.822Z,3.60
2023-04-06T21:19:26.084Z,3.60
2023-04-06T21:21:54.369Z,3.50
2023-04-06T21:24:22.411Z,3.50
2023-04-06T21:26:50.527Z,3.50
2023-04-06T21:29:18.507Z,3.70
2023-04-06T21:31:46.604Z,3.70
2023-04-06T21:34:15.533Z,3.70
2023-04-06T21:36:43.883Z,3.80
2023-04-06T21:39:12.152Z,3.90
2023-04-06T21:41:41.944Z,4.00
2023-04-06T21:44:10.055Z,3.80
2023-04-06T21:46:38.399Z,3.60
2023-04-06T21:49:06.447Z,3.60
2023-04-06T21:51:34.471Z,3.60
2023-04-06T21:54:03.262Z,3.70
2023-04-06T21:56:31.444Z,3.70
2023-04-06T21:58:59.540Z,3.80
2023-04-06T22:01:28.260Z,3.90
2023-04-06T22:03:59.324Z,3.90
2023-04-06T22:06:30.307Z,3.60
2023-04-06T22:08:59.469Z,3.40
2023-04-06T22:11:27.740Z,3.30
2023-04-06T22:13:55.836Z,3.20
2023-04-06T22:16:23.982Z,3.10
2023-04-06T22:18:52.107Z,3.10
2023-04-06T22:21:20.369Z,3.10
2023-04-06T22:23:48.524Z,3.10
2023-04-06T22:26:16.789Z,3.10
2023-04-06T22:28:44.859Z,3.00
2023-04-06T22:31:13.007Z,3.10
2023-04-06T22:33:41.031Z,3.00
2023-04-06T22:36:09.233Z,3.00
2023-04-06T22:38:37.306Z,2.90
2023-04-06T22:41:07.188Z,3.00
2023-04-06T22:43:36.457Z,3.10
2023-04-06T22:46:04.674Z,3.10
2023-04-06T22:48:32.705Z,2.90
2023-04-06T22:51:00.825Z,2.80
2023-04-06T22:53:28.931Z,2.70
2023-04-06T22:55:57.344Z,2.70
2023-04-06T22:58:25.497Z,2.80
2023-04-06T23:00:53.600Z,2.90
2023-04-06T23:03:21.986Z,3.00
2023-04-06T23:05:50.199Z,3.10
2023-04-06T23:08:18.316Z,2.90
2023-04-06T23:10:46.452Z,2.70
2023-04-06T23:13:14.787Z,2.70
2023-04-06T23:15:43.108Z,2.70
2023-04-06T23:18:11.260Z,2.70
2023-04-06T23:20:40.492Z,2.60
2023-04-06T23:23:09.099Z,2.50
2023-04-06T23:25:37.498Z,2.50
2023-04-06T23:28:06.825Z,2.60
2023-04-06T23:30:35.467Z,2.70
2023-04-06T23:33:03.842Z,2.80
2023-04-06T23:35:32.618Z,2.90
2023-04-06T23:38:00.833Z,2.90
2023-04-06T23:40:29.167Z,2.70
2023-04-06T23:42:57.696Z,2.50
2023-04-06T23:45:26.131Z,2.50
2023-04-06T23:47:54.360Z,2.40
2023-04-06T23:50:22.640Z,2.30
2023-04-06T23:52:50.870Z,2.30
2023-04-06T23:55:19.108Z,2.30
2023-04-06T23:57:47.291Z,2.50
